sensor_id;sensor_type;location;lat;lon;timestamp;P1;durP1;ratioP1;P2;durP2;ratioP2
54657;SDS011;56972;43.886;20.354;2022-09-01T00:02:11;28.88;;;23.05;;
54657;SDS011;56972;43.886;20.354;2022-09-01T00:04:39;23.58;;;19.70;;
54657;SDS011;56972;43.886;20.354;2022-09-01T00:07:06;25.98;;;22.45;;
54657;SDS011;56972;43.886;20.354;2022-09-01T00:09:33;22.15;;;18.42;;
54657;SDS011;56972;43.886;20.354;2022-09-01T00:12:00;23.52;;;18.83;;
54657;SDS011;56972;43.886;20.354;2022-09-01T00:14:29;21.13;;;19.02;;
54657;SDS011;56972;43.886;20.354;2022-09-01T00:16:55;21.80;;;18.63;;
54657;SDS011;56972;43.886;20.354;2022-09-01T00:19:22;22.25;;;17.13;;
54657;SDS011;56972;43.886;20.354;2022-09-01T00:21:48;19.58;;;17.40;;
54657;SDS011;56972;43.886;20.354;2022-09-01T00:24:15;21.48;;;18.40;;
54657;SDS011;56972;43.886;20.354;2022-09-01T00:26:42;19.90;;;17.80;;
54657;SDS011;56972;43.886;20.354;2022-09-01T00:29:08;23.90;;;16.77;;
54657;SDS011;56972;43.886;20.354;2022-09-01T00:31:34;24.02;;;15.32;;
54657;SDS011;56972;43.886;20.354;2022-09-01T00:34:00;25.90;;;16.02;;
54657;SDS011;56972;43.886;20.354;2022-09-01T00:36:26;20.13;;;15.15;;
54657;SDS011;56972;43.886;20.354;2022-09-01T00:38:53;16.60;;;14.20;;
54657;SDS011;56972;43.886;20.354;2022-09-01T00:41:22;18.15;;;14.57;;
54657;SDS011;56972;43.886;20.354;2022-09-01T00:43:52;14.52;;;13.15;;
54657;SDS011;56972;43.886;20.354;2022-09-01T00:46:23;22.50;;;17.13;;
54657;SDS011;56972;43.886;20.354;2022-09-01T00:48:53;19.48;;;16.08;;
54657;SDS011;56972;43.886;20.354;2022-09-01T00:51:21;23.65;;;15.07;;
54657;SDS011;56972;43.886;20.354;2022-09-01T00:53:47;21.13;;;16.45;;
54657;SDS011;56972;43.886;20.354;2022-09-01T00:56:14;19.50;;;14.98;;
54657;SDS011;56972;43.886;20.354;2022-09-01T00:58:40;16.60;;;14.88;;
54657;SDS011;56972;43.886;20.354;2022-09-01T01:01:07;25.55;;;15.60;;
54657;SDS011;56972;43.886;20.354;2022-09-01T01:03:34;29.55;;;15.85;;
54657;SDS011;56972;43.886;20.354;2022-09-01T01:06:02;20.83;;;15.88;;
54657;SDS011;56972;43.886;20.354;2022-09-01T01:08:31;19.95;;;14.95;;
54657;SDS011;56972;43.886;20.354;2022-09-01T01:11:12;19.45;;;15.73;;
54657;SDS011;56972;43.886;20.354;2022-09-01T01:13:53;19.65;;;15.48;;
54657;SDS011;56972;43.886;20.354;2022-09-01T01:16:21;23.00;;;20.40;;
54657;SDS011;56972;43.886;20.354;2022-09-01T01:18:48;41.05;;;29.80;;
54657;SDS011;56972;43.886;20.354;2022-09-01T01:21:34;17.00;;;15.10;;
54657;SDS011;56972;43.886;20.354;2022-09-01T01:26:47;16.83;;;14.63;;
54657;SDS011;56972;43.886;20.354;2022-09-01T01:29:15;21.55;;;19.25;;
54657;SDS011;56972;43.886;20.354;2022-09-01T01:31:41;25.40;;;17.67;;
54657;SDS011;56972;43.886;20.354;2022-09-01T01:34:07;18.48;;;15.15;;
54657;SDS011;56972;43.886;20.354;2022-09-01T01:36:34;17.65;;;15.43;;
54657;SDS011;56972;43.886;20.354;2022-09-01T01:39:09;18.38;;;14.35;;
54657;SDS011;56972;43.886;20.354;2022-09-01T01:41:36;19.38;;;15.05;;
54657;SDS011;56972;43.886;20.354;2022-09-01T01:44:05;23.58;;;14.93;;
54657;SDS011;56972;43.886;20.354;2022-09-01T01:46:32;21.90;;;15.35;;
54657;SDS011;56972;43.886;20.354;2022-09-01T01:48:58;16.95;;;15.23;;
54657;SDS011;56972;43.886;20.354;2022-09-01T01:51:27;21.00;;;14.77;;
54657;SDS011;56972;43.886;20.354;2022-09-01T01:53:57;21.40;;;15.55;;
54657;SDS011;56972;43.886;20.354;2022-09-01T01:56:25;24.80;;;17.23;;
54657;SDS011;56972;43.886;20.354;2022-09-01T01:58:52;27.88;;;19.42;;
54657;SDS011;56972;43.886;20.354;2022-09-01T02:01:27;20.98;;;18.85;;
54657;SDS011;56972;43.886;20.354;2022-09-01T02:03:56;25.88;;;19.45;;
54657;SDS011;56972;43.886;20.354;2022-09-01T02:06:23;21.48;;;18.00;;
54657;SDS011;56972;43.886;20.354;2022-09-01T02:08:50;26.40;;;19.85;;
54657;SDS011;56972;43.886;20.354;2022-09-01T02:11:17;24.17;;;20.90;;
54657;SDS011;56972;43.886;20.354;2022-09-01T02:13:43;34.17;;;21.33;;
54657;SDS011;56972;43.886;20.354;2022-09-01T02:16:11;24.35;;;21.75;;
54657;SDS011;56972;43.886;20.354;2022-09-01T02:18:41;26.70;;;22.75;;
54657;SDS011;56972;43.886;20.354;2022-09-01T02:21:12;33.10;;;24.20;;
54657;SDS011;56972;43.886;20.354;2022-09-01T02:23:43;26.45;;;23.60;;
54657;SDS011;56972;43.886;20.354;2022-09-01T02:26:09;27.70;;;23.92;;
54657;SDS011;56972;43.886;20.354;2022-09-01T02:28:38;25.42;;;22.92;;
54657;SDS011;56972;43.886;20.354;2022-09-01T02:31:07;35.70;;;23.58;;
54657;SDS011;56972;43.886;20.354;2022-09-01T02:33:34;25.77;;;23.08;;
54657;SDS011;56972;43.886;20.354;2022-09-01T02:36:03;28.73;;;24.20;;
54657;SDS011;56972;43.886;20.354;2022-09-01T02:38:29;25.40;;;22.60;;
54657;SDS011;56972;43.886;20.354;2022-09-01T02:40:58;30.60;;;23.33;;
54657;SDS011;56972;43.886;20.354;2022-09-01T02:43:25;32.10;;;23.83;;
54657;SDS011;56972;43.886;20.354;2022-09-01T02:45:52;27.63;;;22.00;;
54657;SDS011;56972;43.886;20.354;2022-09-01T02:48:23;27.48;;;23.00;;
54657;SDS011;56972;43.886;20.354;2022-09-01T02:50:50;29.02;;;24.05;;
54657;SDS011;56972;43.886;20.354;2022-09-01T02:53:17;27.63;;;23.65;;
54657;SDS011;56972;43.886;20.354;2022-09-01T02:55:44;38.15;;;24.33;;
54657;SDS011;56972;43.886;20.354;2022-09-01T02:58:10;29.30;;;23.98;;
54657;SDS011;56972;43.886;20.354;2022-09-01T03:00:41;26.75;;;23.88;;
54657;SDS011;56972;43.886;20.354;2022-09-01T03:03:07;27.35;;;24.77;;
54657;SDS011;56972;43.886;20.354;2022-09-01T03:05:33;30.63;;;26.85;;
54657;SDS011;56972;43.886;20.354;2022-09-01T03:08:04;29.77;;;26.52;;
54657;SDS011;56972;43.886;20.354;2022-09-01T03:10:35;30.80;;;26.88;;
54657;SDS011;56972;43.886;20.354;2022-09-01T03:39:35;44.42;;;35.28;;
54657;SDS011;56972;43.886;20.354;2022-09-01T03:42:01;60.22;;;41.55;;
54657;SDS011;56972;43.886;20.354;2022-09-01T03:44:27;105.78;;;49.80;;
54657;SDS011;56972;43.886;20.354;2022-09-01T03:46:53;86.28;;;55.25;;
54657;SDS011;56972;43.886;20.354;2022-09-01T03:49:22;234.32;;;76.75;;
54657;SDS011;56972;43.886;20.354;2022-09-01T03:51:52;380.00;;;90.25;;
54657;SDS011;56972;43.886;20.354;2022-09-01T03:54:19;171.82;;;70.75;;
54657;SDS011;56972;43.886;20.354;2022-09-01T03:56:49;171.10;;;78.85;;
54657;SDS011;56972;43.886;20.354;2022-09-01T03:59:15;107.40;;;67.82;;
54657;SDS011;56972;43.886;20.354;2022-09-01T04:01:41;90.07;;;66.07;;
54657;SDS011;56972;43.886;20.354;2022-09-01T04:04:11;78.38;;;56.50;;
54657;SDS011;56972;43.886;20.354;2022-09-01T04:06:41;67.13;;;52.55;;
54657;SDS011;56972;43.886;20.354;2022-09-01T04:09:07;56.60;;;49.58;;
54657;SDS011;56972;43.886;20.354;2022-09-01T04:11:34;52.53;;;42.85;;
54657;SDS011;56972;43.886;20.354;2022-09-01T04:14:03;45.53;;;40.60;;
54657;SDS011;56972;43.886;20.354;2022-09-01T04:16:30;51.50;;;44.15;;
54657;SDS011;56972;43.886;20.354;2022-09-01T04:19:16;51.10;;;44.72;;
54657;SDS011;56972;43.886;20.354;2022-09-01T04:21:50;50.58;;;41.72;;
54657;SDS011;56972;43.886;20.354;2022-09-01T04:24:17;48.30;;;42.42;;
54657;SDS011;56972;43.886;20.354;2022-09-01T04:26:44;52.15;;;40.92;;
54657;SDS011;56972;43.886;20.354;2022-09-01T04:29:13;53.85;;;42.05;;
54657;SDS011;56972;43.886;20.354;2022-09-01T04:31:39;50.03;;;40.00;;
54657;SDS011;56972;43.886;20.354;2022-09-01T04:34:06;47.63;;;37.60;;
54657;SDS011;56972;43.886;20.354;2022-09-01T04:36:37;42.13;;;37.72;;
54657;SDS011;56972;43.886;20.354;2022-09-01T04:39:05;49.28;;;39.05;;
54657;SDS011;56972;43.886;20.354;2022-09-01T04:41:33;49.35;;;38.42;;
54657;SDS011;56972;43.886;20.354;2022-09-01T04:44:00;50.67;;;37.67;;
54657;SDS011;56972;43.886;20.354;2022-09-01T04:46:28;48.10;;;38.47;;
54657;SDS011;56972;43.886;20.354;2022-09-01T04:48:55;44.60;;;39.25;;
54657;SDS011;56972;43.886;20.354;2022-09-01T04:51:22;43.28;;;34.72;;
54657;SDS011;56972;43.886;20.354;2022-09-01T04:53:52;37.00;;;33.03;;
54657;SDS011;56972;43.886;20.354;2022-09-01T04:56:19;40.17;;;35.95;;
54657;SDS011;56972;43.886;20.354;2022-09-01T04:58:46;42.45;;;37.58;;
54657;SDS011;56972;43.886;20.354;2022-09-01T05:01:17;43.17;;;38.45;;
54657;SDS011;56972;43.886;20.354;2022-09-01T05:03:43;40.47;;;31.95;;
54657;SDS011;56972;43.886;20.354;2022-09-01T05:06:16;36.00;;;31.13;;
54657;SDS011;56972;43.886;20.354;2022-09-01T05:08:43;37.00;;;32.10;;
54657;SDS011;56972;43.886;20.354;2022-09-01T05:11:10;39.97;;;33.80;;
54657;SDS011;56972;43.886;20.354;2022-09-01T05:13:37;40.85;;;34.42;;
54657;SDS011;56972;43.886;20.354;2022-09-01T05:16:07;42.63;;;33.47;;
54657;SDS011;56972;43.886;20.354;2022-09-01T05:21:04;42.45;;;31.02;;
54657;SDS011;56972;43.886;20.354;2022-09-01T05:23:34;37.35;;;32.97;;
54657;SDS011;56972;43.886;20.354;2022-09-01T05:26:00;39.10;;;32.08;;
54657;SDS011;56972;43.886;20.354;2022-09-01T05:28:30;45.83;;;32.15;;
54657;SDS011;56972;43.886;20.354;2022-09-01T05:30:59;37.83;;;32.63;;
54657;SDS011;56972;43.886;20.354;2022-09-01T05:33:26;44.88;;;37.53;;
54657;SDS011;56972;43.886;20.354;2022-09-01T05:35:53;43.83;;;38.42;;
54657;SDS011;56972;43.886;20.354;2022-09-01T05:38:20;45.20;;;35.40;;
54657;SDS011;56972;43.886;20.354;2022-09-01T05:40:54;44.00;;;36.38;;
54657;SDS011;56972;43.886;20.354;2022-09-01T05:43:21;42.20;;;37.47;;
54657;SDS011;56972;43.886;20.354;2022-09-01T05:45:51;45.45;;;37.28;;
54657;SDS011;56972;43.886;20.354;2022-09-01T05:48:18;40.60;;;35.72;;
54657;SDS011;56972;43.886;20.354;2022-09-01T05:50:45;38.53;;;34.42;;
54657;SDS011;56972;43.886;20.354;2022-09-01T05:53:13;40.67;;;34.63;;
54657;SDS011;56972;43.886;20.354;2022-09-01T05:55:44;41.60;;;32.47;;
54657;SDS011;56972;43.886;20.354;2022-09-01T05:58:11;38.83;;;31.73;;
54657;SDS011;56972;43.886;20.354;2022-09-01T06:00:42;33.13;;;29.08;;
54657;SDS011;56972;43.886;20.354;2022-09-01T06:03:11;37.47;;;30.38;;
54657;SDS011;56972;43.886;20.354;2022-09-01T06:05:38;39.75;;;28.17;;
54657;SDS011;56972;43.886;20.354;2022-09-01T06:08:06;33.40;;;29.23;;
54657;SDS011;56972;43.886;20.354;2022-09-01T06:10:38;35.60;;;31.15;;
54657;SDS011;56972;43.886;20.354;2022-09-01T06:13:08;35.25;;;30.67;;
54657;SDS011;56972;43.886;20.354;2022-09-01T06:15:35;38.65;;;31.65;;
54657;SDS011;56972;43.886;20.354;2022-09-01T06:18:06;36.17;;;32.55;;
54657;SDS011;56972;43.886;20.354;2022-09-01T06:20:33;42.92;;;35.67;;
54657;SDS011;56972;43.886;20.354;2022-09-01T06:22:59;47.30;;;36.22;;
54657;SDS011;56972;43.886;20.354;2022-09-01T06:25:27;40.88;;;32.47;;
54657;SDS011;56972;43.886;20.354;2022-09-01T06:27:55;38.88;;;31.85;;
54657;SDS011;56972;43.886;20.354;2022-09-01T06:30:21;48.20;;;36.70;;
54657;SDS011;56972;43.886;20.354;2022-09-01T06:32:50;43.75;;;36.05;;
54657;SDS011;56972;43.886;20.354;2022-09-01T06:35:16;44.22;;;36.42;;
54657;SDS011;56972;43.886;20.354;2022-09-01T06:37:43;40.38;;;35.47;;
54657;SDS011;56972;43.886;20.354;2022-09-01T06:40:10;43.13;;;34.97;;
54657;SDS011;56972;43.886;20.354;2022-09-01T06:42:44;45.78;;;36.00;;
54657;SDS011;56972;43.886;20.354;2022-09-01T06:45:12;39.08;;;34.83;;
54657;SDS011;56972;43.886;20.354;2022-09-01T06:47:39;40.35;;;33.72;;
54657;SDS011;56972;43.886;20.354;2022-09-01T06:50:08;36.53;;;32.65;;
54657;SDS011;56972;43.886;20.354;2022-09-01T06:52:35;33.70;;;30.30;;
54657;SDS011;56972;43.886;20.354;2022-09-01T06:55:04;36.50;;;30.40;;
54657;SDS011;56972;43.886;20.354;2022-09-01T06:57:30;39.28;;;32.38;;
54657;SDS011;56972;43.886;20.354;2022-09-01T06:59:56;35.75;;;31.92;;
54657;SDS011;56972;43.886;20.354;2022-09-01T07:02:23;34.53;;;30.05;;
54657;SDS011;56972;43.886;20.354;2022-09-01T07:04:50;32.70;;;29.38;;
54657;SDS011;56972;43.886;20.354;2022-09-01T07:07:16;32.47;;;28.33;;
54657;SDS011;56972;43.886;20.354;2022-09-01T07:09:42;39.25;;;29.45;;
54657;SDS011;56972;43.886;20.354;2022-09-01T07:12:08;37.05;;;28.77;;
54657;SDS011;56972;43.886;20.354;2022-09-01T07:14:34;35.80;;;29.55;;
54657;SDS011;56972;43.886;20.354;2022-09-01T07:17:00;36.65;;;30.17;;
54657;SDS011;56972;43.886;20.354;2022-09-01T07:19:26;36.65;;;28.05;;
54657;SDS011;56972;43.886;20.354;2022-09-01T07:21:52;36.20;;;29.45;;
54657;SDS011;56972;43.886;20.354;2022-09-01T07:24:19;40.50;;;29.17;;
54657;SDS011;56972;43.886;20.354;2022-09-01T07:26:45;29.23;;;26.20;;
54657;SDS011;56972;43.886;20.354;2022-09-01T07:29:15;33.13;;;26.30;;
54657;SDS011;56972;43.886;20.354;2022-09-01T07:31:43;31.60;;;26.98;;
54657;SDS011;56972;43.886;20.354;2022-09-01T07:34:10;31.85;;;27.30;;
54657;SDS011;56972;43.886;20.354;2022-09-01T07:36:40;33.13;;;23.58;;
54657;SDS011;56972;43.886;20.354;2022-09-01T07:39:09;29.83;;;24.52;;
54657;SDS011;56972;43.886;20.354;2022-09-01T07:41:36;30.27;;;25.17;;
54657;SDS011;56972;43.886;20.354;2022-09-01T07:44:03;32.38;;;25.08;;
54657;SDS011;56972;43.886;20.354;2022-09-01T07:46:32;32.67;;;25.52;;
54657;SDS011;56972;43.886;20.354;2022-09-01T07:48:58;29.05;;;23.75;;
54657;SDS011;56972;43.886;20.354;2022-09-01T07:51:25;26.52;;;23.02;;
54657;SDS011;56972;43.886;20.354;2022-09-01T07:53:52;26.85;;;22.50;;
54657;SDS011;56972;43.886;20.354;2022-09-01T07:56:19;24.85;;;22.23;;
54657;SDS011;56972;43.886;20.354;2022-09-01T07:58:46;26.10;;;23.23;;
54657;SDS011;56972;43.886;20.354;2022-09-01T08:01:13;25.30;;;22.33;;
54657;SDS011;56972;43.886;20.354;2022-09-01T08:03:43;26.60;;;21.90;;
54657;SDS011;56972;43.886;20.354;2022-09-01T08:06:10;21.83;;;19.70;;
54657;SDS011;56972;43.886;20.354;2022-09-01T08:08:37;25.65;;;18.52;;
54657;SDS011;56972;43.886;20.354;2022-09-01T08:11:04;25.88;;;20.42;;
54657;SDS011;56972;43.886;20.354;2022-09-01T08:13:31;22.35;;;20.15;;
54657;SDS011;56972;43.886;20.354;2022-09-01T08:15:57;24.63;;;18.88;;
54657;SDS011;56972;43.886;20.354;2022-09-01T08:18:23;25.15;;;18.60;;
54657;SDS011;56972;43.886;20.354;2022-09-01T08:20:49;21.40;;;18.50;;
54657;SDS011;56972;43.886;20.354;2022-09-01T08:23:16;21.35;;;19.25;;
54657;SDS011;56972;43.886;20.354;2022-09-01T08:25:50;18.23;;;16.33;;
54657;SDS011;56972;43.886;20.354;2022-09-01T08:28:16;22.08;;;16.58;;
54657;SDS011;56972;43.886;20.354;2022-09-01T08:30:43;21.85;;;16.50;;
54657;SDS011;56972;43.886;20.354;2022-09-01T08:33:09;19.15;;;15.63;;
54657;SDS011;56972;43.886;20.354;2022-09-01T08:35:39;16.80;;;15.15;;
54657;SDS011;56972;43.886;20.354;2022-09-01T08:38:05;19.35;;;15.88;;
54657;SDS011;56972;43.886;20.354;2022-09-01T08:40:31;19.95;;;17.30;;
54657;SDS011;56972;43.886;20.354;2022-09-01T08:45:30;23.00;;;15.90;;
54657;SDS011;56972;43.886;20.354;2022-09-01T08:48:01;20.63;;;17.27;;
54657;SDS011;56972;43.886;20.354;2022-09-01T08:50:30;19.90;;;18.00;;
54657;SDS011;56972;43.886;20.354;2022-09-01T08:53:00;27.38;;;24.58;;
54657;SDS011;56972;43.886;20.354;2022-09-01T08:55:40;29.23;;;26.30;;
54657;SDS011;56972;43.886;20.354;2022-09-01T08:58:08;35.33;;;31.73;;
54657;SDS011;56972;43.886;20.354;2022-09-01T09:00:40;35.00;;;31.85;;
54657;SDS011;56972;43.886;20.354;2022-09-01T09:21:41;43.42;;;39.10;;
54657;SDS011;56972;43.886;20.354;2022-09-01T09:24:28;44.47;;;34.47;;
54657;SDS011;56972;43.886;20.354;2022-09-01T09:27:11;39.15;;;34.97;;
54657;SDS011;56972;43.886;20.354;2022-09-01T09:29:41;42.47;;;34.30;;
54657;SDS011;56972;43.886;20.354;2022-09-01T09:32:07;39.70;;;35.65;;
54657;SDS011;56972;43.886;20.354;2022-09-01T09:34:41;43.72;;;31.52;;
54657;SDS011;56972;43.886;20.354;2022-09-01T09:37:19;37.90;;;33.90;;
54657;SDS011;56972;43.886;20.354;2022-09-01T09:40:00;37.47;;;33.72;;
54657;SDS011;56972;43.886;20.354;2022-09-01T09:42:26;36.63;;;32.63;;
54657;SDS011;56972;43.886;20.354;2022-09-01T09:44:52;46.72;;;34.30;;
54657;SDS011;56972;43.886;20.354;2022-09-01T09:47:39;36.17;;;32.47;;
54657;SDS011;56972;43.886;20.354;2022-09-01T09:50:13;37.20;;;33.22;;
54657;SDS011;56972;43.886;20.354;2022-09-01T09:52:41;38.47;;;34.30;;
54657;SDS011;56972;43.886;20.354;2022-09-01T09:57:43;44.40;;;32.85;;
54657;SDS011;56972;43.886;20.354;2022-09-01T10:02:42;35.28;;;30.75;;
54657;SDS011;56972;43.886;20.354;2022-09-01T10:05:26;36.30;;;32.63;;
54657;SDS011;56972;43.886;20.354;2022-09-01T10:07:53;37.80;;;33.67;;
54657;SDS011;56972;43.886;20.354;2022-09-01T10:10:40;36.78;;;32.38;;
54657;SDS011;56972;43.886;20.354;2022-09-01T10:13:07;35.63;;;32.03;;
54657;SDS011;56972;43.886;20.354;2022-09-01T10:15:34;34.00;;;30.40;;
54657;SDS011;56972;43.886;20.354;2022-09-01T10:18:35;36.15;;;32.42;;
54657;SDS011;56972;43.886;20.354;2022-09-01T10:23:29;38.42;;;34.20;;
54657;SDS011;56972;43.886;20.354;2022-09-01T10:25:58;41.40;;;35.05;;
54657;SDS011;56972;43.886;20.354;2022-09-01T10:28:26;38.00;;;32.80;;
54657;SDS011;56972;43.886;20.354;2022-09-01T10:30:55;37.63;;;33.67;;
54657;SDS011;56972;43.886;20.354;2022-09-01T10:33:22;42.28;;;35.78;;
54657;SDS011;56972;43.886;20.354;2022-09-01T10:35:50;39.20;;;35.00;;
54657;SDS011;56972;43.886;20.354;2022-09-01T10:38:18;43.72;;;35.10;;
54657;SDS011;56972;43.886;20.354;2022-09-01T10:40:45;42.20;;;36.05;;
54657;SDS011;56972;43.886;20.354;2022-09-01T10:43:22;39.47;;;32.38;;
54657;SDS011;56972;43.886;20.354;2022-09-01T10:45:52;46.42;;;35.63;;
54657;SDS011;56972;43.886;20.354;2022-09-01T10:50:45;42.67;;;35.22;;
54657;SDS011;56972;43.886;20.354;2022-09-01T11:01:04;37.92;;;32.67;;
54657;SDS011;56972;43.886;20.354;2022-09-01T11:11:00;42.55;;;34.38;;
54657;SDS011;56972;43.886;20.354;2022-09-01T11:13:44;40.97;;;32.92;;
54657;SDS011;56972;43.886;20.354;2022-09-01T11:18:51;40.92;;;33.30;;
54657;SDS011;56972;43.886;20.354;2022-09-01T11:21:24;39.50;;;33.03;;
54657;SDS011;56972;43.886;20.354;2022-09-01T11:23:51;38.95;;;31.23;;
54657;SDS011;56972;43.886;20.354;2022-09-01T11:26:44;38.35;;;30.88;;
54657;SDS011;56972;43.886;20.354;2022-09-01T11:31:56;45.15;;;32.58;;
54657;SDS011;56972;43.886;20.354;2022-09-01T11:34:23;40.78;;;34.00;;
54657;SDS011;56972;43.886;20.354;2022-09-01T11:36:56;43.08;;;33.95;;
54657;SDS011;56972;43.886;20.354;2022-09-01T11:39:29;40.60;;;33.60;;
54657;SDS011;56972;43.886;20.354;2022-09-01T11:47:25;37.17;;;31.17;;
54657;SDS011;56972;43.886;20.354;2022-09-01T11:52:19;35.67;;;31.88;;
54657;SDS011;56972;43.886;20.354;2022-09-01T11:54:45;32.78;;;29.40;;
54657;SDS011;56972;43.886;20.354;2022-09-01T11:57:19;34.42;;;30.85;;
54657;SDS011;56972;43.886;20.354;2022-09-01T11:59:46;39.22;;;33.55;;
54657;SDS011;56972;43.886;20.354;2022-09-01T12:02:19;39.53;;;31.85;;
54657;SDS011;56972;43.886;20.354;2022-09-01T12:04:47;41.90;;;32.38;;
54657;SDS011;56972;43.886;20.354;2022-09-01T12:07:23;36.60;;;32.75;;
54657;SDS011;56972;43.886;20.354;2022-09-01T12:09:49;37.60;;;31.55;;
54657;SDS011;56972;43.886;20.354;2022-09-01T12:12:35;40.70;;;32.85;;
54657;SDS011;56972;43.886;20.354;2022-09-01T12:15:24;42.50;;;33.47;;
54657;SDS011;56972;43.886;20.354;2022-09-01T12:17:48;43.50;;;34.42;;
54657;SDS011;56972;43.886;20.354;2022-09-01T12:20:18;40.72;;;33.97;;
54657;SDS011;56972;43.886;20.354;2022-09-01T12:22:44;34.63;;;29.70;;
54657;SDS011;56972;43.886;20.354;2022-09-01T12:25:32;37.28;;;32.42;;
54657;SDS011;56972;43.886;20.354;2022-09-01T12:28:02;38.65;;;32.17;;
54657;SDS011;56972;43.886;20.354;2022-09-01T12:30:30;36.75;;;31.63;;
54657;SDS011;56972;43.886;20.354;2022-09-01T12:32:59;38.30;;;34.17;;
54657;SDS011;56972;43.886;20.354;2022-09-01T12:35:26;38.10;;;30.48;;
54657;SDS011;56972;43.886;20.354;2022-09-01T12:38:12;39.60;;;29.50;;
54657;SDS011;56972;43.886;20.354;2022-09-01T12:40:38;36.85;;;30.35;;
54657;SDS011;56972;43.886;20.354;2022-09-01T12:43:04;25.63;;;22.67;;
54657;SDS011;56972;43.886;20.354;2022-09-01T12:45:41;24.88;;;21.35;;
54657;SDS011;56972;43.886;20.354;2022-09-01T12:48:27;24.98;;;20.42;;
54657;SDS011;56972;43.886;20.354;2022-09-01T12:50:55;22.67;;;20.27;;
54657;SDS011;56972;43.886;20.354;2022-09-01T12:53:23;23.52;;;20.70;;
54657;SDS011;56972;43.886;20.354;2022-09-01T12:58:48;25.83;;;21.02;;
54657;SDS011;56972;43.886;20.354;2022-09-01T13:01:29;29.58;;;25.80;;
54657;SDS011;56972;43.886;20.354;2022-09-01T13:04:06;25.63;;;22.33;;
54657;SDS011;56972;43.886;20.354;2022-09-01T13:06:32;34.15;;;24.63;;
54657;SDS011;56972;43.886;20.354;2022-09-01T13:08:58;23.92;;;21.25;;
54657;SDS011;56972;43.886;20.354;2022-09-01T13:11:24;24.20;;;21.55;;
54657;SDS011;56972;43.886;20.354;2022-09-01T13:13:50;25.65;;;21.63;;
54657;SDS011;56972;43.886;20.354;2022-09-01T13:16:16;23.90;;;20.67;;
54657;SDS011;56972;43.886;20.354;2022-09-01T13:18:43;24.38;;;21.85;;
54657;SDS011;56972;43.886;20.354;2022-09-01T13:21:09;25.55;;;22.75;;
54657;SDS011;56972;43.886;20.354;2022-09-01T13:23:36;27.77;;;24.77;;
54657;SDS011;56972;43.886;20.354;2022-09-01T13:26:02;23.05;;;19.52;;
54657;SDS011;56972;43.886;20.354;2022-09-01T13:28:29;27.88;;;21.25;;
54657;SDS011;56972;43.886;20.354;2022-09-01T13:31:00;25.35;;;20.63;;
54657;SDS011;56972;43.886;20.354;2022-09-01T13:35:55;25.73;;;21.52;;
54657;SDS011;56972;43.886;20.354;2022-09-01T13:38:21;24.58;;;22.17;;
54657;SDS011;56972;43.886;20.354;2022-09-01T13:40:47;27.95;;;24.95;;
54657;SDS011;56972;43.886;20.354;2022-09-01T13:43:14;27.35;;;24.58;;
54657;SDS011;56972;43.886;20.354;2022-09-01T13:45:41;25.58;;;22.92;;
54657;SDS011;56972;43.886;20.354;2022-09-01T13:48:07;31.15;;;26.27;;
54657;SDS011;56972;43.886;20.354;2022-09-01T13:50:34;30.25;;;27.10;;
54657;SDS011;56972;43.886;20.354;2022-09-01T13:53:00;30.88;;;27.30;;
54657;SDS011;56972;43.886;20.354;2022-09-01T13:55:28;31.40;;;28.30;;
54657;SDS011;56972;43.886;20.354;2022-09-01T13:57:54;32.88;;;29.55;;
54657;SDS011;56972;43.886;20.354;2022-09-01T14:00:22;31.08;;;28.00;;
54657;SDS011;56972;43.886;20.354;2022-09-01T14:02:49;31.27;;;27.92;;
54657;SDS011;56972;43.886;20.354;2022-09-01T14:05:18;34.17;;;30.50;;
54657;SDS011;56972;43.886;20.354;2022-09-01T14:07:44;32.83;;;29.70;;
54657;SDS011;56972;43.886;20.354;2022-09-01T14:10:11;35.03;;;30.50;;
54657;SDS011;56972;43.886;20.354;2022-09-01T14:12:38;37.25;;;33.55;;
54657;SDS011;56972;43.886;20.354;2022-09-01T14:15:05;34.90;;;31.35;;
54657;SDS011;56972;43.886;20.354;2022-09-01T14:17:33;35.97;;;30.85;;
54657;SDS011;56972;43.886;20.354;2022-09-01T14:19:59;40.42;;;33.30;;
54657;SDS011;56972;43.886;20.354;2022-09-01T14:22:25;37.42;;;33.40;;
54657;SDS011;56972;43.886;20.354;2022-09-01T14:24:51;36.85;;;32.85;;
54657;SDS011;56972;43.886;20.354;2022-09-01T14:27:17;33.35;;;29.98;;
54657;SDS011;56972;43.886;20.354;2022-09-01T14:29:47;31.02;;;27.70;;
54657;SDS011;56972;43.886;20.354;2022-09-01T14:32:14;34.15;;;30.50;;
54657;SDS011;56972;43.886;20.354;2022-09-01T14:34:41;31.83;;;28.45;;
54657;SDS011;56972;43.886;20.354;2022-09-01T14:37:07;31.67;;;28.38;;
54657;SDS011;56972;43.886;20.354;2022-09-01T14:39:33;34.67;;;31.33;;
54657;SDS011;56972;43.886;20.354;2022-09-01T14:41:59;37.72;;;32.83;;
54657;SDS011;56972;43.886;20.354;2022-09-01T14:44:25;36.15;;;32.55;;
54657;SDS011;56972;43.886;20.354;2022-09-01T14:46:51;37.45;;;33.45;;
54657;SDS011;56972;43.886;20.354;2022-09-01T14:49:18;39.67;;;35.20;;
54657;SDS011;56972;43.886;20.354;2022-09-01T14:51:45;41.42;;;37.00;;
54657;SDS011;56972;43.886;20.354;2022-09-01T14:54:11;44.83;;;40.47;;
54657;SDS011;56972;43.886;20.354;2022-09-01T14:56:37;46.45;;;41.50;;
54657;SDS011;56972;43.886;20.354;2022-09-01T14:59:03;44.03;;;39.63;;
54657;SDS011;56972;43.886;20.354;2022-09-01T15:01:30;46.78;;;41.75;;
54657;SDS011;56972;43.886;20.354;2022-09-01T15:03:56;53.45;;;45.65;;
54657;SDS011;56972;43.886;20.354;2022-09-01T15:06:22;50.90;;;45.80;;
54657;SDS011;56972;43.886;20.354;2022-09-01T15:08:48;48.95;;;43.78;;
54657;SDS011;56972;43.886;20.354;2022-09-01T15:11:16;46.40;;;41.83;;
54657;SDS011;56972;43.886;20.354;2022-09-01T15:13:42;45.35;;;40.65;;
54657;SDS011;56972;43.886;20.354;2022-09-01T15:16:13;43.90;;;39.45;;
54657;SDS011;56972;43.886;20.354;2022-09-01T15:18:39;37.40;;;33.50;;
54657;SDS011;56972;43.886;20.354;2022-09-01T15:21:05;35.17;;;30.77;;
54657;SDS011;56972;43.886;20.354;2022-09-01T15:23:31;34.47;;;30.80;;
54657;SDS011;56972;43.886;20.354;2022-09-01T15:25:57;33.65;;;25.75;;
54657;SDS011;56972;43.886;20.354;2022-09-01T15:28:24;29.45;;;24.02;;
54657;SDS011;56972;43.886;20.354;2022-09-01T15:30:51;25.17;;;22.48;;
54657;SDS011;56972;43.886;20.354;2022-09-01T15:33:18;31.80;;;22.98;;
54657;SDS011;56972;43.886;20.354;2022-09-01T15:35:45;29.73;;;22.58;;
54657;SDS011;56972;43.886;20.354;2022-09-01T15:38:12;31.73;;;20.73;;
54657;SDS011;56972;43.886;20.354;2022-09-01T15:40:40;31.58;;;20.50;;
54657;SDS011;56972;43.886;20.354;2022-09-01T15:43:07;35.25;;;19.25;;
54657;SDS011;56972;43.886;20.354;2022-09-01T15:45:33;30.98;;;20.00;;
54657;SDS011;56972;43.886;20.354;2022-09-01T15:48:00;28.17;;;19.90;;
54657;SDS011;56972;43.886;20.354;2022-09-01T15:50:26;27.83;;;18.90;;
54657;SDS011;56972;43.886;20.354;2022-09-01T15:52:54;31.23;;;19.67;;
54657;SDS011;56972;43.886;20.354;2022-09-01T15:55:29;32.70;;;20.08;;